sensor_id;sensor_type;location;lat;lon;timestamp;P1;durP1;ratioP1;P2;durP2;ratioP2
4460;SDS011;2243;48.812;9.232;2023-04-08T00:02:03;9.00;;;7.40;;
4460;SDS011;2243;48.812;9.232;2023-04-08T00:04:35;11.20;;;9.00;;
4460;SDS011;2243;48.812;9.232;2023-04-08T00:07:06;9.10;;;8.10;;
4460;SDS011;2243;48.812;9.232;2023-04-08T00:09:37;10.93;;;8.03;;
4460;SDS011;2243;48.812;9.232;2023-04-08T00:12:08;10.67;;;8.67;;
4460;SDS011;2243;48.812;9.232;2023-04-08T00:14:39;14.50;;;9.70;;
4460;SDS011;2243;48.812;9.232;2023-04-08T00:17:10;9.93;;;8.70;;
4460;SDS011;2243;48.812;9.232;2023-04-08T00:19:42;13.47;;;9.17;;
4460;SDS011;2243;48.812;9.232;2023-04-08T00:22:13;11.93;;;9.90;;
4460;SDS011;2243;48.812;9.232;2023-04-08T00:24:44;12.27;;;9.03;;
4460;SDS011;2243;48.812;9.232;2023-04-08T00:27:15;11.00;;;9.03;;
4460;SDS011;2243;48.812;9.232;2023-04-08T00:29:46;12.57;;;9.40;;
4460;SDS011;2243;48.812;9.232;2023-04-08T00:32:17;11.97;;;9.13;;
4460;SDS011;2243;48.812;9.232;2023-04-08T00:34:48;14.10;;;10.53;;
4460;SDS011;2243;48.812;9.232;2023-04-08T00:37:20;10.27;;;8.40;;
4460;SDS011;2243;48.812;9.232;2023-04-08T00:39:52;11.37;;;9.20;;
4460;SDS011;2243;48.812;9.232;2023-04-08T00:42:23;12.60;;;9.50;;
4460;SDS011;2243;48.812;9.232;2023-04-08T00:44:54;10.93;;;8.43;;
4460;SDS011;2243;48.812;9.232;2023-04-08T00:47:26;10.10;;;8.87;;
4460;SDS011;2243;48.812;9.232;2023-04-08T00:49:57;14.90;;;10.10;;
4460;SDS011;2243;48.812;9.232;2023-04-08T00:52:28;15.33;;;10.50;;
4460;SDS011;2243;48.812;9.232;2023-04-08T00:54:59;14.00;;;10.13;;
4460;SDS011;2243;48.812;9.232;2023-04-08T00:57:30;10.27;;;9.23;;
4460;SDS011;2243;48.812;9.232;2023-04-08T01:00:02;12.13;;;8.90;;
4460;SDS011;2243;48.812;9.232;2023-04-08T01:05:52;12.87;;;9.50;;
4460;SDS011;2243;48.812;9.232;2023-04-08T01:09:17;12.13;;;8.93;;
4460;SDS011;2243;48.812;9.232;2023-04-08T01:11:50;13.40;;;9.80;;
4460;SDS011;2243;48.812;9.232;2023-04-08T01:14:24;13.97;;;9.97;;
4460;SDS011;2243;48.812;9.232;2023-04-08T01:16:57;11.30;;;9.33;;
4460;SDS011;2243;48.812;9.232;2023-04-08T01:19:31;13.05;;;9.75;;
4460;SDS011;2243;48.812;9.232;2023-04-08T01:22:22;11.60;;;9.67;;
4460;SDS011;2243;48.812;9.232;2023-04-08T01:25:26;11.03;;;8.77;;
4460;SDS011;2243;48.812;9.232;2023-04-08T01:28:05;13.97;;;9.43;;
4460;SDS011;2243;48.812;9.232;2023-04-08T01:30:40;11.60;;;9.60;;
4460;SDS011;2243;48.812;9.232;2023-04-08T01:33:13;12.10;;;9.33;;
4460;SDS011;2243;48.812;9.232;2023-04-08T01:35:46;12.57;;;10.10;;
4460;SDS011;2243;48.812;9.232;2023-04-08T01:38:18;10.63;;;8.87;;
4460;SDS011;2243;48.812;9.232;2023-04-08T01:40:50;11.97;;;9.17;;
4460;SDS011;2243;48.812;9.232;2023-04-08T01:43:22;13.13;;;10.00;;
4460;SDS011;2243;48.812;9.232;2023-04-08T01:45:55;12.80;;;10.13;;
4460;SDS011;2243;48.812;9.232;2023-04-08T01:48:27;11.30;;;9.93;;
4460;SDS011;2243;48.812;9.232;2023-04-08T01:50:59;13.10;;;10.17;;
4460;SDS011;2243;48.812;9.232;2023-04-08T01:53:31;10.90;;;9.80;;
4460;SDS011;2243;48.812;9.232;2023-04-08T01:56:08;11.87;;;9.27;;
4460;SDS011;2243;48.812;9.232;2023-04-08T01:58:45;11.10;;;10.00;;
4460;SDS011;2243;48.812;9.232;2023-04-08T02:01:22;11.30;;;9.87;;
4460;SDS011;2243;48.812;9.232;2023-04-08T02:03:56;13.00;;;10.80;;
4460;SDS011;2243;48.812;9.232;2023-04-08T02:06:28;14.87;;;10.43;;
4460;SDS011;2243;48.812;9.232;2023-04-08T02:09:01;13.30;;;10.00;;
4460;SDS011;2243;48.812;9.232;2023-04-08T02:11:32;14.43;;;11.10;;
4460;SDS011;2243;48.812;9.232;2023-04-08T02:14:03;13.40;;;9.77;;
4460;SDS011;2243;48.812;9.232;2023-04-08T02:16:38;13.23;;;9.87;;
4460;SDS011;2243;48.812;9.232;2023-04-08T02:19:14;14.13;;;11.20;;
4460;SDS011;2243;48.812;9.232;2023-04-08T02:21:54;14.27;;;10.90;;
4460;SDS011;2243;48.812;9.232;2023-04-08T02:24:33;14.53;;;11.13;;
4460;SDS011;2243;48.812;9.232;2023-04-08T02:27:06;12.57;;;10.17;;
4460;SDS011;2243;48.812;9.232;2023-04-08T02:29:40;16.00;;;11.80;;
4460;SDS011;2243;48.812;9.232;2023-04-08T02:32:11;13.20;;;10.70;;
4460;SDS011;2243;48.812;9.232;2023-04-08T02:34:43;15.40;;;10.60;;
4460;SDS011;2243;48.812;9.232;2023-04-08T02:37:15;15.83;;;11.13;;
4460;SDS011;2243;48.812;9.232;2023-04-08T02:39:46;15.83;;;11.23;;
4460;SDS011;2243;48.812;9.232;2023-04-08T02:42:17;14.87;;;10.90;;
4460;SDS011;2243;48.812;9.232;2023-04-08T02:44:50;13.50;;;11.10;;
4460;SDS011;2243;48.812;9.232;2023-04-08T02:47:21;13.83;;;10.10;;
4460;SDS011;2243;48.812;9.232;2023-04-08T02:49:52;14.93;;;11.20;;
4460;SDS011;2243;48.812;9.232;2023-04-08T02:52:24;14.97;;;10.90;;
4460;SDS011;2243;48.812;9.232;2023-04-08T02:54:55;18.33;;;11.93;;
4460;SDS011;2243;48.812;9.232;2023-04-08T02:57:26;14.27;;;11.23;;
4460;SDS011;2243;48.812;9.232;2023-04-08T02:59:57;16.53;;;12.07;;
4460;SDS011;2243;48.812;9.232;2023-04-08T03:02:28;15.07;;;10.53;;
4460;SDS011;2243;48.812;9.232;2023-04-08T03:04:59;17.87;;;11.70;;
4460;SDS011;2243;48.812;9.232;2023-04-08T03:07:30;16.00;;;11.23;;
4460;SDS011;2243;48.812;9.232;2023-04-08T03:10:02;14.77;;;10.33;;
4460;SDS011;2243;48.812;9.232;2023-04-08T03:12:33;15.63;;;10.47;;
4460;SDS011;2243;48.812;9.232;2023-04-08T03:15:05;15.83;;;11.13;;
4460;SDS011;2243;48.812;9.232;2023-04-08T03:17:36;13.33;;;9.87;;
4460;SDS011;2243;48.812;9.232;2023-04-08T03:20:07;14.93;;;10.87;;
4460;SDS011;2243;48.812;9.232;2023-04-08T03:22:39;19.00;;;12.10;;
4460;SDS011;2243;48.812;9.232;2023-04-08T03:25:10;19.10;;;10.93;;
4460;SDS011;2243;48.812;9.232;2023-04-08T03:27:41;19.53;;;12.10;;
4460;SDS011;2243;48.812;9.232;2023-04-08T03:30:12;18.87;;;11.30;;
4460;SDS011;2243;48.812;9.232;2023-04-08T03:32:43;14.80;;;11.20;;
4460;SDS011;2243;48.812;9.232;2023-04-08T03:35:14;17.30;;;11.83;;
4460;SDS011;2243;48.812;9.232;2023-04-08T03:37:45;20.03;;;11.40;;
4460;SDS011;2243;48.812;9.232;2023-04-08T03:40:16;20.43;;;13.30;;
4460;SDS011;2243;48.812;9.232;2023-04-08T03:42:47;20.83;;;11.97;;
4460;SDS011;2243;48.812;9.232;2023-04-08T03:45:18;22.90;;;12.10;;
4460;SDS011;2243;48.812;9.232;2023-04-08T03:47:49;17.77;;;11.43;;
4460;SDS011;2243;48.812;9.232;2023-04-08T03:50:20;20.40;;;12.20;;
4460;SDS011;2243;48.812;9.232;2023-04-08T03:52:51;24.37;;;12.63;;
4460;SDS011;2243;48.812;9.232;2023-04-08T03:55:22;18.80;;;12.10;;
4460;SDS011;2243;48.812;9.232;2023-04-08T03:57:53;18.77;;;11.73;;
4460;SDS011;2243;48.812;9.232;2023-04-08T04:00:24;21.40;;;13.27;;
4460;SDS011;2243;48.812;9.232;2023-04-08T04:02:55;22.03;;;12.20;;
4460;SDS011;2243;48.812;9.232;2023-04-08T04:05:26;21.70;;;13.27;;
4460;SDS011;2243;48.812;9.232;2023-04-08T04:07:58;18.43;;;12.00;;
4460;SDS011;2243;48.812;9.232;2023-04-08T04:10:29;19.27;;;12.00;;
4460;SDS011;2243;48.812;9.232;2023-04-08T04:13:00;20.63;;;12.30;;
4460;SDS011;2243;48.812;9.232;2023-04-08T04:15:31;19.67;;;12.23;;
4460;SDS011;2243;48.812;9.232;2023-04-08T04:18:02;20.97;;;12.53;;
4460;SDS011;2243;48.812;9.232;2023-04-08T04:20:33;24.37;;;11.83;;
4460;SDS011;2243;48.812;9.232;2023-04-08T04:23:04;21.67;;;12.43;;
4460;SDS011;2243;48.812;9.232;2023-04-08T04:25:35;20.00;;;12.47;;
4460;SDS011;2243;48.812;9.232;2023-04-08T04:28:06;18.10;;;13.17;;
4460;SDS011;2243;48.812;9.232;2023-04-08T04:30:39;22.37;;;11.97;;
4460;SDS011;2243;48.812;9.232;2023-04-08T04:33:10;21.97;;;12.10;;
4460;SDS011;2243;48.812;9.232;2023-04-08T04:35:40;23.57;;;13.23;;
4460;SDS011;2243;48.812;9.232;2023-04-08T04:38:11;21.30;;;12.67;;
4460;SDS011;2243;48.812;9.232;2023-04-08T04:40:42;18.33;;;11.50;;
4460;SDS011;2243;48.812;9.232;2023-04-08T04:43:13;17.27;;;11.33;;
4460;SDS011;2243;48.812;9.232;2023-04-08T04:45:44;17.17;;;11.70;;
4460;SDS011;2243;48.812;9.232;2023-04-08T04:48:15;23.17;;;13.07;;
4460;SDS011;2243;48.812;9.232;2023-04-08T04:50:53;22.40;;;13.67;;
4460;SDS011;2243;48.812;9.232;2023-04-08T04:53:25;25.77;;;14.03;;
4460;SDS011;2243;48.812;9.232;2023-04-08T04:55:56;21.13;;;13.20;;
4460;SDS011;2243;48.812;9.232;2023-04-08T04:58:27;22.77;;;14.60;;
4460;SDS011;2243;48.812;9.232;2023-04-08T05:00:59;20.73;;;13.10;;
4460;SDS011;2243;48.812;9.232;2023-04-08T05:03:30;20.73;;;12.90;;
4460;SDS011;2243;48.812;9.232;2023-04-08T05:06:01;18.90;;;12.43;;
4460;SDS011;2243;48.812;9.232;2023-04-08T05:08:32;23.30;;;12.87;;
4460;SDS011;2243;48.812;9.232;2023-04-08T05:11:03;23.13;;;13.50;;
4460;SDS011;2243;48.812;9.232;2023-04-08T05:13:38;21.40;;;12.67;;
4460;SDS011;2243;48.812;9.232;2023-04-08T05:16:09;21.43;;;12.37;;
4460;SDS011;2243;48.812;9.232;2023-04-08T05:18:40;20.00;;;12.23;;
4460;SDS011;2243;48.812;9.232;2023-04-08T05:21:11;26.70;;;13.70;;
4460;SDS011;2243;48.812;9.232;2023-04-08T05:23:42;21.10;;;14.20;;
4460;SDS011;2243;48.812;9.232;2023-04-08T05:26:13;23.27;;;13.37;;
4460;SDS011;2243;48.812;9.232;2023-04-08T05:28:46;22.00;;;13.87;;
4460;SDS011;2243;48.812;9.232;2023-04-08T05:31:19;19.83;;;13.03;;
4460;SDS011;2243;48.812;9.232;2023-04-08T05:33:50;26.07;;;15.40;;
4460;SDS011;2243;48.812;9.232;2023-04-08T05:36:21;19.90;;;12.83;;
4460;SDS011;2243;48.812;9.232;2023-04-08T05:38:52;24.70;;;14.20;;
4460;SDS011;2243;48.812;9.232;2023-04-08T05:41:23;24.83;;;14.43;;
4460;SDS011;2243;48.812;9.232;2023-04-08T05:43:54;20.53;;;13.43;;
4460;SDS011;2243;48.812;9.232;2023-04-08T05:46:25;21.43;;;13.80;;
4460;SDS011;2243;48.812;9.232;2023-04-08T05:48:56;26.83;;;13.50;;
4460;SDS011;2243;48.812;9.232;2023-04-08T05:51:27;23.30;;;13.90;;
4460;SDS011;2243;48.812;9.232;2023-04-08T05:53:58;21.50;;;13.43;;
4460;SDS011;2243;48.812;9.232;2023-04-08T05:56:29;21.10;;;13.93;;
4460;SDS011;2243;48.812;9.232;2023-04-08T05:59:01;24.00;;;13.93;;
4460;SDS011;2243;48.812;9.232;2023-04-08T06:01:32;22.73;;;14.87;;
4460;SDS011;2243;48.812;9.232;2023-04-08T06:04:03;19.70;;;13.47;;
4460;SDS011;2243;48.812;9.232;2023-04-08T06:06:36;23.77;;;14.63;;
4460;SDS011;2243;48.812;9.232;2023-04-08T06:09:09;21.73;;;14.40;;
4460;SDS011;2243;48.812;9.232;2023-04-08T06:11:39;26.87;;;15.30;;
4460;SDS011;2243;48.812;9.232;2023-04-08T06:14:10;24.17;;;14.30;;
4460;SDS011;2243;48.812;9.232;2023-04-08T06:16:41;20.67;;;13.80;;
4460;SDS011;2243;48.812;9.232;2023-04-08T06:19:13;26.20;;;14.93;;
4460;SDS011;2243;48.812;9.232;2023-04-08T06:21:44;19.07;;;13.40;;
4460;SDS011;2243;48.812;9.232;2023-04-08T06:24:15;28.63;;;14.70;;
4460;SDS011;2243;48.812;9.232;2023-04-08T06:26:46;23.60;;;14.80;;
4460;SDS011;2243;48.812;9.232;2023-04-08T06:29:17;21.23;;;14.20;;
4460;SDS011;2243;48.812;9.232;2023-04-08T06:31:48;24.37;;;14.50;;
4460;SDS011;2243;48.812;9.232;2023-04-08T06:34:20;20.63;;;14.50;;
4460;SDS011;2243;48.812;9.232;2023-04-08T06:36:51;21.77;;;14.23;;
4460;SDS011;2243;48.812;9.232;2023-04-08T06:39:22;21.27;;;12.80;;
4460;SDS011;2243;48.812;9.232;2023-04-08T06:41:53;19.87;;;13.50;;
4460;SDS011;2243;48.812;9.232;2023-04-08T06:44:24;22.70;;;13.40;;
4460;SDS011;2243;48.812;9.232;2023-04-08T06:46:55;22.40;;;14.13;;
4460;SDS011;2243;48.812;9.232;2023-04-08T06:49:26;29.13;;;15.93;;
4460;SDS011;2243;48.812;9.232;2023-04-08T06:51:57;20.80;;;13.40;;
4460;SDS011;2243;48.812;9.232;2023-04-08T06:54:28;22.93;;;14.90;;
4460;SDS011;2243;48.812;9.232;2023-04-08T06:56:59;21.13;;;14.30;;
4460;SDS011;2243;48.812;9.232;2023-04-08T06:59:30;21.87;;;13.40;;
4460;SDS011;2243;48.812;9.232;2023-04-08T07:02:01;22.17;;;14.27;;
4460;SDS011;2243;48.812;9.232;2023-04-08T07:04:32;20.77;;;12.60;;
4460;SDS011;2243;48.812;9.232;2023-04-08T07:07:03;19.97;;;13.43;;
4460;SDS011;2243;48.812;9.232;2023-04-08T07:09:34;19.50;;;13.67;;
4460;SDS011;2243;48.812;9.232;2023-04-08T07:12:06;16.53;;;11.53;;
4460;SDS011;2243;48.812;9.232;2023-04-08T07:14:37;19.43;;;13.27;;
4460;SDS011;2243;48.812;9.232;2023-04-08T07:17:08;19.80;;;12.33;;
4460;SDS011;2243;48.812;9.232;2023-04-08T07:19:39;15.80;;;12.07;;
4460;SDS011;2243;48.812;9.232;2023-04-08T07:22:10;21.13;;;13.37;;
4460;SDS011;2243;48.812;9.232;2023-04-08T07:24:41;16.67;;;11.70;;
4460;SDS011;2243;48.812;9.232;2023-04-08T07:27:15;15.37;;;10.60;;
4460;SDS011;2243;48.812;9.232;2023-04-08T07:29:46;19.17;;;12.80;;
4460;SDS011;2243;48.812;9.232;2023-04-08T07:32:23;14.93;;;10.70;;
4460;SDS011;2243;48.812;9.232;2023-04-08T07:34:54;16.50;;;11.80;;
4460;SDS011;2243;48.812;9.232;2023-04-08T07:37:25;15.13;;;11.27;;
4460;SDS011;2243;48.812;9.232;2023-04-08T07:39:57;15.60;;;12.17;;
4460;SDS011;2243;48.812;9.232;2023-04-08T07:42:27;15.83;;;11.47;;
4460;SDS011;2243;48.812;9.232;2023-04-08T07:44:58;16.00;;;11.43;;
4460;SDS011;2243;48.812;9.232;2023-04-08T07:47:29;18.73;;;12.63;;
4460;SDS011;2243;48.812;9.232;2023-04-08T07:50:00;17.20;;;11.93;;
4460;SDS011;2243;48.812;9.232;2023-04-08T07:52:32;14.93;;;10.87;;
4460;SDS011;2243;48.812;9.232;2023-04-08T07:55:04;18.63;;;12.30;;
4460;SDS011;2243;48.812;9.232;2023-04-08T07:57:35;16.17;;;11.97;;
4460;SDS011;2243;48.812;9.232;2023-04-08T08:00:07;15.70;;;12.10;;
4460;SDS011;2243;48.812;9.232;2023-04-08T08:02:38;16.77;;;12.63;;
4460;SDS011;2243;48.812;9.232;2023-04-08T08:05:09;14.60;;;11.97;;
4460;SDS011;2243;48.812;9.232;2023-04-08T08:07:40;17.30;;;12.10;;
4460;SDS011;2243;48.812;9.232;2023-04-08T08:10:11;17.40;;;12.60;;
4460;SDS011;2243;48.812;9.232;2023-04-08T08:12:42;16.37;;;11.40;;
4460;SDS011;2243;48.812;9.232;2023-04-08T08:15:13;14.20;;;11.07;;
4460;SDS011;2243;48.812;9.232;2023-04-08T08:17:44;16.63;;;12.53;;
4460;SDS011;2243;48.812;9.232;2023-04-08T08:20:15;14.10;;;11.40;;
4460;SDS011;2243;48.812;9.232;2023-04-08T08:22:46;16.30;;;11.63;;
4460;SDS011;2243;48.812;9.232;2023-04-08T08:25:26;17.13;;;13.10;;
4460;SDS011;2243;48.812;9.232;2023-04-08T08:27:57;13.50;;;10.10;;
4460;SDS011;2243;48.812;9.232;2023-04-08T08:30:28;14.43;;;11.57;;
4460;SDS011;2243;48.812;9.232;2023-04-08T08:33:02;16.80;;;12.10;;
4460;SDS011;2243;48.812;9.232;2023-04-08T08:35:33;14.27;;;11.40;;
4460;SDS011;2243;48.812;9.232;2023-04-08T08:38:04;16.23;;;11.87;;
4460;SDS011;2243;48.812;9.232;2023-04-08T08:40:35;16.50;;;12.10;;
4460;SDS011;2243;48.812;9.232;2023-04-08T08:43:05;14.10;;;11.20;;
4460;SDS011;2243;48.812;9.232;2023-04-08T08:45:41;13.50;;;10.67;;
4460;SDS011;2243;48.812;9.232;2023-04-08T08:48:12;15.00;;;10.47;;
4460;SDS011;2243;48.812;9.232;2023-04-08T08:50:44;14.70;;;11.90;;
4460;SDS011;2243;48.812;9.232;2023-04-08T08:53:15;15.67;;;12.00;;
4460;SDS011;2243;48.812;9.232;2023-04-08T08:55:46;13.67;;;11.33;;
4460;SDS011;2243;48.812;9.232;2023-04-08T08:58:20;13.40;;;11.20;;
4460;SDS011;2243;48.812;9.232;2023-04-08T09:00:52;17.83;;;12.07;;
4460;SDS011;2243;48.812;9.232;2023-04-08T09:03:24;16.07;;;12.40;;
4460;SDS011;2243;48.812;9.232;2023-04-08T09:05:59;12.90;;;11.17;;
4460;SDS011;2243;48.812;9.232;2023-04-08T09:08:32;14.80;;;11.10;;
4460;SDS011;2243;48.812;9.232;2023-04-08T09:11:24;14.97;;;11.80;;
4460;SDS011;2243;48.812;9.232;2023-04-08T09:13:55;13.27;;;10.80;;
4460;SDS011;2243;48.812;9.232;2023-04-08T09:16:26;15.90;;;12.13;;
4460;SDS011;2243;48.812;9.232;2023-04-08T09:19:07;15.17;;;11.40;;
4460;SDS011;2243;48.812;9.232;2023-04-08T09:21:42;14.43;;;11.23;;
4460;SDS011;2243;48.812;9.232;2023-04-08T09:24:27;14.90;;;11.83;;
4460;SDS011;2243;48.812;9.232;2023-04-08T09:27:00;17.43;;;13.17;;
4460;SDS011;2243;48.812;9.232;2023-04-08T09:29:31;13.40;;;11.83;;
4460;SDS011;2243;48.812;9.232;2023-04-08T09:32:08;13.13;;;11.27;;
4460;SDS011;2243;48.812;9.232;2023-04-08T09:34:39;16.60;;;10.83;;
4460;SDS011;2243;48.812;9.232;2023-04-08T09:37:10;15.33;;;12.13;;
4460;SDS011;2243;48.812;9.232;2023-04-08T09:39:41;17.00;;;12.20;;
4460;SDS011;2243;48.812;9.232;2023-04-08T09:42:12;15.77;;;12.40;;
4460;SDS011;2243;48.812;9.232;2023-04-08T09:44:43;17.70;;;12.63;;
4460;SDS011;2243;48.812;9.232;2023-04-08T09:47:19;14.67;;;12.07;;
4460;SDS011;2243;48.812;9.232;2023-04-08T09:49:57;14.60;;;12.30;;
4460;SDS011;2243;48.812;9.232;2023-04-08T09:52:44;14.70;;;12.10;;
4460;SDS011;2243;48.812;9.232;2023-04-08T09:55:21;16.20;;;13.43;;
4460;SDS011;2243;48.812;9.232;2023-04-08T09:58:03;15.63;;;12.37;;
4460;SDS011;2243;48.812;9.232;2023-04-08T10:00:46;15.43;;;11.70;;
4460;SDS011;2243;48.812;9.232;2023-04-08T10:03:29;18.63;;;11.80;;
4460;SDS011;2243;48.812;9.232;2023-04-08T10:06:06;15.57;;;11.53;;
4460;SDS011;2243;48.812;9.232;2023-04-08T10:08:40;17.37;;;11.70;;
4460;SDS011;2243;48.812;9.232;2023-04-08T10:11:15;14.07;;;10.10;;
4460;SDS011;2243;48.812;9.232;2023-04-08T10:13:46;13.93;;;10.67;;
4460;SDS011;2243;48.812;9.232;2023-04-08T10:16:19;13.40;;;11.20;;
4460;SDS011;2243;48.812;9.232;2023-04-08T10:18:54;12.47;;;11.07;;
4460;SDS011;2243;48.812;9.232;2023-04-08T10:21:36;23.60;;;11.80;;
4460;SDS011;2243;48.812;9.232;2023-04-08T10:24:09;14.90;;;11.90;;
4460;SDS011;2243;48.812;9.232;2023-04-08T10:26:43;14.53;;;11.00;;
4460;SDS011;2243;48.812;9.232;2023-04-08T10:31:49;14.70;;;12.03;;
4460;SDS011;2243;48.812;9.232;2023-04-08T10:34:21;15.23;;;12.20;;
4460;SDS011;2243;48.812;9.232;2023-04-08T10:36:56;14.80;;;10.93;;
4460;SDS011;2243;48.812;9.232;2023-04-08T10:39:31;15.43;;;11.50;;
4460;SDS011;2243;48.812;9.232;2023-04-08T10:42:02;14.73;;;12.10;;
4460;SDS011;2243;48.812;9.232;2023-04-08T10:44:33;14.63;;;11.60;;
4460;SDS011;2243;48.812;9.232;2023-04-08T10:47:04;13.40;;;12.00;;
4460;SDS011;2243;48.812;9.232;2023-04-08T10:49:35;14.00;;;12.17;;
4460;SDS011;2243;48.812;9.232;2023-04-08T10:52:07;14.20;;;11.50;;
4460;SDS011;2243;48.812;9.232;2023-04-08T10:54:38;15.20;;;11.03;;
4460;SDS011;2243;48.812;9.232;2023-04-08T10:57:23;14.10;;;10.93;;
4460;SDS011;2243;48.812;9.232;2023-04-08T10:59:55;12.80;;;10.07;;
4460;SDS011;2243;48.812;9.232;2023-04-08T11:02:31;12.27;;;10.97;;
4460;SDS011;2243;48.812;9.232;2023-04-08T11:05:03;17.20;;;12.03;;
4460;SDS011;2243;48.812;9.232;2023-04-08T11:07:40;12.57;;;10.47;;
4460;SDS011;2243;48.812;9.232;2023-04-08T11:10:11;14.43;;;10.70;;
4460;SDS011;2243;48.812;9.232;2023-04-08T11:12:43;12.37;;;9.87;;
4460;SDS011;2243;48.812;9.232;2023-04-08T11:15:13;11.47;;;10.23;;
4460;SDS011;2243;48.812;9.232;2023-04-08T11:17:45;7.63;;;5.80;;
4460;SDS011;2243;48.812;9.232;2023-04-08T11:20:17;10.90;;;9.40;;
4460;SDS011;2243;48.812;9.232;2023-04-08T11:22:48;8.23;;;7.30;;
4460;SDS011;2243;48.812;9.232;2023-04-08T11:25:19;13.63;;;10.43;;
4460;SDS011;2243;48.812;9.232;2023-04-08T11:27:51;13.40;;;10.93;;
4460;SDS011;2243;48.812;9.232;2023-04-08T11:30:23;11.27;;;9.90;;
4460;SDS011;2243;48.812;9.232;2023-04-08T11:32:54;12.20;;;9.90;;
4460;SDS011;2243;48.812;9.232;2023-04-08T11:35:29;12.10;;;9.90;;
4460;SDS011;2243;48.812;9.232;2023-04-08T11:38:03;16.13;;;10.77;;
4460;SDS011;2243;48.812;9.232;2023-04-08T11:40:34;13.07;;;10.27;;
4460;SDS011;2243;48.812;9.232;2023-04-08T11:43:09;13.43;;;10.60;;
4460;SDS011;2243;48.812;9.232;2023-04-08T11:45:42;14.77;;;11.00;;
4460;SDS011;2243;48.812;9.232;2023-04-08T11:48:14;16.70;;;11.20;;
4460;SDS011;2243;48.812;9.232;2023-04-08T11:50:45;14.67;;;11.00;;
4460;SDS011;2243;48.812;9.232;2023-04-08T11:55:51;12.17;;;10.23;;
4460;SDS011;2243;48.812;9.232;2023-04-08T11:58:22;13.40;;;10.70;;
4460;SDS011;2243;48.812;9.232;2023-04-08T12:00:53;12.07;;;10.57;;
4460;SDS011;2243;48.812;9.232;2023-04-08T12:03:24;15.30;;;10.27;;
4460;SDS011;2243;48.812;9.232;2023-04-08T12:05:55;11.53;;;10.30;;
4460;SDS011;2243;48.812;9.232;2023-04-08T12:08:26;11.50;;;10.30;;
4460;SDS011;2243;48.812;9.232;2023-04-08T12:10:57;12.37;;;10.90;;
4460;SDS011;2243;48.812;9.232;2023-04-08T12:13:46;14.13;;;9.57;;
4460;SDS011;2243;48.812;9.232;2023-04-08T12:16:19;13.40;;;10.47;;
4460;SDS011;2243;48.812;9.232;2023-04-08T12:18:50;12.00;;;9.87;;
4460;SDS011;2243;48.812;9.232;2023-04-08T12:21:21;11.37;;;9.83;;
4460;SDS011;2243;48.812;9.232;2023-04-08T12:23:52;12.10;;;10.13;;
4460;SDS011;2243;48.812;9.232;2023-04-08T12:26:23;13.23;;;10.20;;
4460;SDS011;2243;48.812;9.232;2023-04-08T12:28:54;10.90;;;9.80;;
4460;SDS011;2243;48.812;9.232;2023-04-08T12:31:25;10.60;;;9.60;;
4460;SDS011;2243;48.812;9.232;2023-04-08T12:33:57;11.40;;;9.67;;
4460;SDS011;2243;48.812;9.232;2023-04-08T12:36:28;11.50;;;9.67;;
4460;SDS011;2243;48.812;9.232;2023-04-08T12:39:00;14.03;;;10.03;;
4460;SDS011;2243;48.812;9.232;2023-04-08T12:41:31;10.60;;;9.50;;
4460;SDS011;2243;48.812;9.232;2023-04-08T12:44:02;11.37;;;9.83;;
4460;SDS011;2243;48.812;9.232;2023-04-08T12:46:33;9.93;;;8.93;;
4460;SDS011;2243;48.812;9.232;2023-04-08T12:49:05;12.23;;;10.60;;
4460;SDS011;2243;48.812;9.232;2023-04-08T12:51:36;11.70;;;10.50;;
4460;SDS011;2243;48.812;9.232;2023-04-08T12:54:07;11.87;;;10.67;;
4460;SDS011;2243;48.812;9.232;2023-04-08T12:56:38;13.83;;;11.07;;
4460;SDS011;2243;48.812;9.232;2023-04-08T12:59:09;13.77;;;10.80;;
4460;SDS011;2243;48.812;9.232;2023-04-08T13:01:40;13.10;;;10.10;;
4460;SDS011;2243;48.812;9.232;2023-04-08T13:04:12;12.27;;;10.50;;
4460;SDS011;2243;48.812;9.232;2023-04-08T13:06:43;13.73;;;10.57;;
4460;SDS011;2243;48.812;9.232;2023-04-08T13:09:15;11.10;;;9.87;;
4460;SDS011;2243;48.812;9.232;2023-04-08T13:11:45;12.70;;;10.60;;
4460;SDS011;2243;48.812;9.232;2023-04-08T13:14:16;11.27;;;9.37;;
4460;SDS011;2243;48.812;9.232;2023-04-08T13:16:47;11.50;;;10.40;;
4460;SDS011;2243;48.812;9.232;2023-04-08T13:19:18;11.27;;;10.17;;
4460;SDS011;2243;48.812;9.232;2023-04-08T13:21:49;10.10;;;9.10;;
4460;SDS011;2243;48.812;9.232;2023-04-08T13:24:20;10.77;;;9.60;;
4460;SDS011;2243;48.812;9.232;2023-04-08T13:26:51;13.03;;;11.07;;
4460;SDS011;2243;48.812;9.232;2023-04-08T13:29:22;15.80;;;10.60;;
4460;SDS011;2243;48.812;9.232;2023-04-08T13:31:53;12.73;;;10.40;;
4460;SDS011;2243;48.812;9.232;2023-04-08T13:34:24;13.70;;;10.70;;
4460;SDS011;2243;48.812;9.232;2023-04-08T13:36:56;11.50;;;10.30;;
4460;SDS011;2243;48.812;9.232;2023-04-08T13:39:27;11.90;;;10.57;;
4460;SDS011;2243;48.812;9.232;2023-04-08T13:41:59;12.50;;;10.37;;
4460;SDS011;2243;48.812;9.232;2023-04-08T13:44:32;13.80;;;10.87;;
4460;SDS011;2243;48.812;9.232;2023-04-08T13:47:04;11.73;;;10.53;;
4460;SDS011;2243;48.812;9.232;2023-04-08T13:49:36;12.57;;;9.83;;
4460;SDS011;2243;48.812;9.232;2023-04-08T13:52:07;11.77;;;9.70;;
4460;SDS011;2243;48.812;9.232;2023-04-08T13:54:38;12.27;;;8.60;;
4460;SDS011;2243;48.812;9.232;2023-04-08T13:57:10;10.13;;;9.13;;
4460;SDS011;2243;48.812;9.232;2023-04-08T13:59:41;11.50;;;10.27;;
4460;SDS011;2243;48.812;9.232;2023-04-08T14:02:14;11.10;;;10.00;;
4460;SDS011;2243;48.812;9.232;2023-04-08T14:04:45;10.53;;;9.40;;
4460;SDS011;2243;48.812;9.232;2023-04-08T14:07:16;11.83;;;10.07;;
4460;SDS011;2243;48.812;9.232;2023-04-08T14:09:49;11.87;;;9.97;;
4460;SDS011;2243;48.812;9.232;2023-04-08T14:12:19;13.13;;;9.80;;
4460;SDS011;2243;48.812;9.232;2023-04-08T14:14:50;10.70;;;9.60;;
4460;SDS011;2243;48.812;9.232;2023-04-08T14:17:21;12.37;;;10.97;;
4460;SDS011;2243;48.812;9.232;2023-04-08T14:19:52;11.40;;;10.20;;
4460;SDS011;2243;48.812;9.232;2023-04-08T14:22:23;11.93;;;10.73;;
4460;SDS011;2243;48.812;9.232;2023-04-08T14:24:54;11.93;;;10.53;;
4460;SDS011;2243;48.812;9.232;2023-04-08T14:27:25;9.33;;;8.20;;
4460;SDS011;2243;48.812;9.232;2023-04-08T14:29:57;11.10;;;10.00;;
4460;SDS011;2243;48.812;9.232;2023-04-08T14:32:28;12.30;;;9.80;;
4460;SDS011;2243;48.812;9.232;2023-04-08T14:34:58;11.03;;;9.70;;
4460;SDS011;2243;48.812;9.232;2023-04-08T14:37:29;11.37;;;8.30;;
4460;SDS011;2243;48.812;9.232;2023-04-08T14:40:00;13.33;;;9.33;;
4460;SDS011;2243;48.812;9.232;2023-04-08T14:42:31;10.23;;;9.07;;
4460;SDS011;2243;48.812;9.232;2023-04-08T14:45:02;9.90;;;8.70;;
4460;SDS011;2243;48.812;9.232;2023-04-08T14:47:33;18.50;;;10.27;;
4460;SDS011;2243;48.812;9.232;2023-04-08T14:50:05;8.30;;;7.50;;
4460;SDS011;2243;48.812;9.232;2023-04-08T14:52:37;7.47;;;6.63;;
4460;SDS011;2243;48.812;9.232;2023-04-08T14:55:08;8.47;;;6.60;;
4460;SDS011;2243;48.812;9.232;2023-04-08T14:57:39;8.43;;;6.80;;
4460;SDS011;2243;48.812;9.232;2023-04-08T15:00:10;7.43;;;6.33;;
4460;SDS011;2243;48.812;9.232;2023-04-08T15:02:42;7.10;;;6.50;;
4460;SDS011;2243;48.812;9.232;2023-04-08T15:05:13;8.60;;;7.53;;
4460;SDS011;2243;48.812;9.232;2023-04-08T15:07:44;7.83;;;7.10;;
4460;SDS011;2243;48.812;9.232;2023-04-08T15:10:16;8.73;;;6.87;;
4460;SDS011;2243;48.812;9.232;2023-04-08T15:12:47;7.37;;;6.77;;
4460;SDS011;2243;48.812;9.232;2023-04-08T15:15:18;8.57;;;7.00;;
4460;SDS011;2243;48.812;9.232;2023-04-08T15:17:49;7.57;;;6.80;;
4460;SDS011;2243;48.812;9.232;2023-04-08T15:20:21;8.83;;;7.13;;
4460;SDS011;2243;48.812;9.232;2023-04-08T15:22:52;7.60;;;6.67;;
4460;SDS011;2243;48.812;9.232;2023-04-08T15:25:23;6.80;;;6.10;;
4460;SDS011;2243;48.812;9.232;2023-04-08T15:27:54;6.60;;;6.00;;
4460;SDS011;2243;48.812;9.232;2023-04-08T15:30:25;6.47;;;6.00;;
4460;SDS011;2243;48.812;9.232;2023-04-08T15:32:56;5.30;;;4.90;;